sensor_id;sensor_type;location;lat;lon;timestamp;pressure;altitude;pressure_sealevel;temperature;humidity
65758;BME280;52495;52.208;5.158;2024-01-30T00:01:58;102440.84;;;8.37;100.00
65758;BME280;52495;52.208;5.158;2024-01-30T00:04:26;102444.25;;;8.35;100.00
65758;BME280;52495;52.208;5.158;2024-01-30T00:06:53;102445.13;;;8.38;100.00
65758;BME280;52495;52.208;5.158;2024-01-30T00:09:20;102442.53;;;8.36;100.00
65758;BME280;52495;52.208;5.158;2024-01-30T00:11:46;102435.72;;;8.37;100.00
65758;BME280;52495;52.208;5.158;2024-01-30T00:14:13;102436.53;;;8.35;100.00
65758;BME280;52495;52.208;5.158;2024-01-30T00:16:40;102431.41;;;8.35;100.00
65758;BME280;52495;52.208;5.158;2024-01-30T00:19:07;102435.66;;;8.35;100.00
65758;BME280;52495;52.208;5.158;2024-01-30T00:21:35;102430.50;;;8.35;100.00
65758;BME280;52495;52.208;5.158;2024-01-30T00:24:01;102434.75;;;8.33;100.00
65758;BME280;52495;52.208;5.158;2024-01-30T00:26:28;102428.81;;;8.35;100.00
65758;BME280;52495;52.208;5.158;2024-01-30T00:28:55;102438.28;;;8.37;100.00
65758;BME280;52495;52.208;5.158;2024-01-30T00:31:22;102432.22;;;8.34;100.00
65758;BME280;52495;52.208;5.158;2024-01-30T00:33:48;102433.09;;;8.35;100.00
65758;BME280;52495;52.208;5.158;2024-01-30T00:36:15;102434.81;;;8.36;100.00
65758;BME280;52495;52.208;5.158;2024-01-30T00:38:43;102429.69;;;8.36;100.00
65758;BME280;52495;52.208;5.158;2024-01-30T00:41:10;102430.50;;;8.35;100.00
65758;BME280;52495;52.208;5.158;2024-01-30T00:43:37;102428.75;;;8.32;100.00
65758;BME280;52495;52.208;5.158;2024-01-30T00:46:03;102431.41;;;8.35;100.00
65758;BME280;52495;52.208;5.158;2024-01-30T00:48:30;102421.06;;;8.34;100.00
65758;BME280;52495;52.208;5.158;2024-01-30T00:50:57;102424.50;;;8.34;100.00
65758;BME280;52495;52.208;5.158;2024-01-30T00:53:23;102421.91;;;8.33;100.00
65758;BME280;52495;52.208;5.158;2024-01-30T00:55:51;102427.03;;;8.31;100.00
65758;BME280;52495;52.208;5.158;2024-01-30T00:58:18;102430.44;;;8.32;100.00
65758;BME280;52495;52.208;5.158;2024-01-30T01:00:45;102423.63;;;8.32;100.00
65758;BME280;52495;52.208;5.158;2024-01-30T01:03:12;102428.75;;;8.32;100.00
65758;BME280;52495;52.208;5.158;2024-01-30T01:05:39;102422.78;;;8.33;100.00
65758;BME280;52495;52.208;5.158;2024-01-30T01:08:06;102415.00;;;8.32;100.00
65758;BME280;52495;52.208;5.158;2024-01-30T01:10:33;102414.16;;;8.31;100.00
65758;BME280;52495;52.208;5.158;2024-01-30T01:13:01;102409.91;;;8.33;100.00
65758;BME280;52495;52.208;5.158;2024-01-30T01:15:27;102385.00;;;8.32;100.00
65758;BME280;52495;52.208;5.158;2024-01-30T01:17:54;102391.00;;;8.31;100.00
65758;BME280;52495;52.208;5.158;2024-01-30T01:20:21;102392.69;;;8.31;100.00
65758;BME280;52495;52.208;5.158;2024-01-30T01:22:47;102400.41;;;8.31;100.00
65758;BME280;52495;52.208;5.158;2024-01-30T01:25:14;102411.59;;;8.31;100.00
65758;BME280;52495;52.208;5.158;2024-01-30T01:27:41;102408.19;;;8.32;100.00
65758;BME280;52495;52.208;5.158;2024-01-30T01:30:11;102403.03;;;8.34;100.00
65758;BME280;52495;52.208;5.158;2024-01-30T01:32:43;102400.47;;;8.34;100.00
65758;BME280;52495;52.208;5.158;2024-01-30T01:35:15;102411.66;;;8.34;100.00
65758;BME280;52495;52.208;5.158;2024-01-30T01:37:42;102414.22;;;8.34;100.00
65758;BME280;52495;52.208;5.158;2024-01-30T01:40:09;102407.28;;;8.32;100.00
65758;BME280;52495;52.208;5.158;2024-01-30T01:42:36;102409.91;;;8.33;100.00
65758;BME280;52495;52.208;5.158;2024-01-30T01:45:04;102401.31;;;8.33;100.00
65758;BME280;52495;52.208;5.158;2024-01-30T01:47:32;102402.19;;;8.33;100.00
65758;BME280;52495;52.208;5.158;2024-01-30T01:49:59;102409.06;;;8.34;100.00
65758;BME280;52495;52.208;5.158;2024-01-30T01:52:26;102397.03;;;8.33;100.00
65758;BME280;52495;52.208;5.158;2024-01-30T01:54:52;102393.59;;;8.33;100.00
65758;BME280;52495;52.208;5.158;2024-01-30T01:57:19;102392.72;;;8.32;100.00
65758;BME280;52495;52.208;5.158;2024-01-30T01:59:46;102389.25;;;8.30;100.00
65758;BME280;52495;52.208;5.158;2024-01-30T02:02:14;102387.53;;;8.31;100.00
65758;BME280;52495;52.208;5.158;2024-01-30T02:04:45;102392.69;;;8.31;100.00
65758;BME280;52495;52.208;5.158;2024-01-30T02:07:12;102402.97;;;8.31;100.00
65758;BME280;52495;52.208;5.158;2024-01-30T02:09:39;102403.81;;;8.30;100.00
65758;BME280;52495;52.208;5.158;2024-01-30T02:12:06;102400.41;;;8.29;100.00
65758;BME280;52495;52.208;5.158;2024-01-30T02:14:33;102385.78;;;8.28;100.00
65758;BME280;52495;52.208;5.158;2024-01-30T02:16:59;102376.34;;;8.29;100.00
65758;BME280;52495;52.208;5.158;2024-01-30T02:19:26;102392.66;;;8.28;100.00
65758;BME280;52495;52.208;5.158;2024-01-30T02:21:54;102398.66;;;8.27;100.00
65758;BME280;52495;52.208;5.158;2024-01-30T02:24:21;102397.81;;;8.28;100.00
65758;BME280;52495;52.208;5.158;2024-01-30T02:26:48;102387.50;;;8.28;100.00
65758;BME280;52495;52.208;5.158;2024-01-30T02:29:15;102386.66;;;8.29;100.00
65758;BME280;52495;52.208;5.158;2024-01-30T02:31:41;102407.22;;;8.27;100.00
65758;BME280;52495;52.208;5.158;2024-01-30T02:34:08;102402.09;;;8.29;100.00
65758;BME280;52495;52.208;5.158;2024-01-30T02:36:35;102392.66;;;8.28;100.00
65758;BME280;52495;52.208;5.158;2024-01-30T02:39:03;102378.06;;;8.28;100.00
65758;BME280;52495;52.208;5.158;2024-01-30T02:41:30;102360.91;;;8.29;100.00
65758;BME280;52495;52.208;5.158;2024-01-30T02:43:57;102348.91;;;8.28;100.00
65758;BME280;52495;52.208;5.158;2024-01-30T02:46:23;102382.38;;;8.28;100.00
65758;BME280;52495;52.208;5.158;2024-01-30T02:48:50;102373.84;;;8.32;100.00
65758;BME280;52495;52.208;5.158;2024-01-30T02:51:17;102368.63;;;8.29;100.00
65758;BME280;52495;52.208;5.158;2024-01-30T02:53:44;102370.34;;;8.28;100.00
65758;BME280;52495;52.208;5.158;2024-01-30T02:56:12;102364.34;;;8.28;100.00
65758;BME280;52495;52.208;5.158;2024-01-30T02:58:39;102365.22;;;8.28;100.00
65758;BME280;52495;52.208;5.158;2024-01-30T03:01:05;102360.88;;;8.26;100.00
65758;BME280;52495;52.208;5.158;2024-01-30T03:03:32;102358.31;;;8.26;100.00
65758;BME280;52495;52.208;5.158;2024-01-30T03:06:00;102359.94;;;8.22;100.00
65758;BME280;52495;52.208;5.158;2024-01-30T03:08:27;102353.13;;;8.24;100.00
65758;BME280;52495;52.208;5.158;2024-01-30T03:10:53;102352.28;;;8.24;100.00
65758;BME280;52495;52.208;5.158;2024-01-30T03:13:22;102363.34;;;8.21;100.00
65758;BME280;52495;52.208;5.158;2024-01-30T03:15:50;102365.06;;;8.20;100.00
65758;BME280;52495;52.208;5.158;2024-01-30T03:18:17;102357.34;;;8.19;100.00
65758;BME280;52495;52.208;5.158;2024-01-30T03:20:44;102347.91;;;8.18;100.00
65758;BME280;52495;52.208;5.158;2024-01-30T03:23:11;102350.47;;;8.19;100.00
65758;BME280;52495;52.208;5.158;2024-01-30T03:25:37;102344.47;;;8.19;100.00
65758;BME280;52495;52.208;5.158;2024-01-30T03:28:05;102340.19;;;8.19;100.00
65758;BME280;52495;52.208;5.158;2024-01-30T03:30:34;102335.94;;;8.22;100.00
65758;BME280;52495;52.208;5.158;2024-01-30T03:33:00;102326.47;;;8.19;100.00
65758;BME280;52495;52.208;5.158;2024-01-30T03:35:27;102329.88;;;8.18;100.00
65758;BME280;52495;52.208;5.158;2024-01-30T03:37:54;102324.75;;;8.18;100.00
65758;BME280;52495;52.208;5.158;2024-01-30T03:40:20;102319.53;;;8.16;100.00
65758;BME280;52495;52.208;5.158;2024-01-30T03:42:47;102308.41;;;8.16;100.00
65758;BME280;52495;52.208;5.158;2024-01-30T03:45:14;102317.88;;;8.18;100.00
65758;BME280;52495;52.208;5.158;2024-01-30T03:47:44;102321.34;;;8.20;100.00
65758;BME280;52495;52.208;5.158;2024-01-30T03:50:11;102325.59;;;8.20;100.00
65758;BME280;52495;52.208;5.158;2024-01-30T03:52:38;102332.47;;;8.21;100.00
65758;BME280;52495;52.208;5.158;2024-01-30T03:55:05;102329.13;;;8.24;100.00
65758;BME280;52495;52.208;5.158;2024-01-30T03:57:32;102329.06;;;8.22;100.00
65758;BME280;52495;52.208;5.158;2024-01-30T03:59:59;102324.81;;;8.24;100.00
65758;BME280;52495;52.208;5.158;2024-01-30T04:02:26;102323.09;;;8.23;100.00
65758;BME280;52495;52.208;5.158;2024-01-30T04:04:54;102327.41;;;8.24;100.00
65758;BME280;52495;52.208;5.158;2024-01-30T04:07:20;102333.41;;;8.25;100.00
65758;BME280;52495;52.208;5.158;2024-01-30T04:09:47;102336.00;;;8.26;100.00
65758;BME280;52495;52.208;5.158;2024-01-30T04:12:14;102337.75;;;8.27;100.00
65758;BME280;52495;52.208;5.158;2024-01-30T04:14:40;102330.94;;;8.31;100.00
65758;BME280;52495;52.208;5.158;2024-01-30T04:17:07;102328.34;;;8.31;100.00
65758;BME280;52495;52.208;5.158;2024-01-30T04:19:37;102330.03;;;8.29;100.00
65758;BME280;52495;52.208;5.158;2024-01-30T04:22:05;102319.78;;;8.32;100.00
65758;BME280;52495;52.208;5.158;2024-01-30T04:24:31;102321.53;;;8.31;100.00
65758;BME280;52495;52.208;5.158;2024-01-30T04:26:58;102321.53;;;8.31;100.00
65758;BME280;52495;52.208;5.158;2024-01-30T04:29:25;102320.63;;;8.31;100.00
65758;BME280;52495;52.208;5.158;2024-01-30T04:31:51;102320.63;;;8.31;100.00
65758;BME280;52495;52.208;5.158;2024-01-30T04:34:18;102315.47;;;8.29;100.00
65758;BME280;52495;52.208;5.158;2024-01-30T04:36:45;102306.91;;;8.30;100.00
65758;BME280;52495;52.208;5.158;2024-01-30T04:39:13;102305.25;;;8.32;100.00
65758;BME280;52495;52.208;5.158;2024-01-30T04:41:39;102300.94;;;8.33;100.00
65758;BME280;52495;52.208;5.158;2024-01-30T04:44:06;102294.09;;;8.33;100.00
65758;BME280;52495;52.208;5.158;2024-01-30T04:46:33;102301.00;;;8.34;100.00
65758;BME280;52495;52.208;5.158;2024-01-30T04:49:00;102300.16;;;8.35;100.00
65758;BME280;52495;52.208;5.158;2024-01-30T04:51:27;102298.38;;;8.33;100.00
65758;BME280;52495;52.208;5.158;2024-01-30T04:53:53;102312.97;;;8.34;100.00
65758;BME280;52495;52.208;5.158;2024-01-30T04:56:21;102305.25;;;8.34;100.00
65758;BME280;52495;52.208;5.158;2024-01-30T04:58:48;102298.41;;;8.34;100.00
65758;BME280;52495;52.208;5.158;2024-01-30T05:01:15;102296.72;;;8.37;100.00
65758;BME280;52495;52.208;5.158;2024-01-30T05:03:42;102297.56;;;8.35;100.00
65758;BME280;52495;52.208;5.158;2024-01-30T05:06:09;102297.59;;;8.37;100.00
65758;BME280;52495;52.208;5.158;2024-01-30T05:08:35;102297.59;;;8.39;100.00
65758;BME280;52495;52.208;5.158;2024-01-30T05:11:05;102297.59;;;8.39;100.00
65758;BME280;52495;52.208;5.158;2024-01-30T05:13:33;102290.72;;;8.38;100.00
65758;BME280;52495;52.208;5.158;2024-01-30T05:16:02;102301.06;;;8.41;100.00
65758;BME280;52495;52.208;5.158;2024-01-30T05:18:29;102292.50;;;8.42;100.00
65758;BME280;52495;52.208;5.158;2024-01-30T05:20:55;102290.81;;;8.42;100.00
65758;BME280;52495;52.208;5.158;2024-01-30T05:23:22;102292.56;;;8.45;100.00
65758;BME280;52495;52.208;5.158;2024-01-30T05:25:48;102291.72;;;8.47;100.00
65758;BME280;52495;52.208;5.158;2024-01-30T05:28:14;102294.38;;;8.49;100.00
65758;BME280;52495;52.208;5.158;2024-01-30T05:30:42;102301.22;;;8.48;100.00
65758;BME280;52495;52.208;5.158;2024-01-30T05:33:08;102296.06;;;8.48;100.00
65758;BME280;52495;52.208;5.158;2024-01-30T05:35:37;102298.69;;;8.50;100.00
65758;BME280;52495;52.208;5.158;2024-01-30T05:38:04;102296.09;;;8.50;100.00
65758;BME280;52495;52.208;5.158;2024-01-30T05:40:31;102292.69;;;8.53;100.00
65758;BME280;52495;52.208;5.158;2024-01-30T05:42:57;102296.16;;;8.53;100.00
65758;BME280;52495;52.208;5.158;2024-01-30T05:45:28;102299.56;;;8.52;100.00
65758;BME280;52495;52.208;5.158;2024-01-30T05:47:56;102297.84;;;8.54;100.00
65758;BME280;52495;52.208;5.158;2024-01-30T05:50:22;102295.28;;;8.54;100.00
65758;BME280;52495;52.208;5.158;2024-01-30T05:52:50;102297.00;;;8.55;100.00
65758;BME280;52495;52.208;5.158;2024-01-30T05:55:17;102303.06;;;8.57;100.00
65758;BME280;52495;52.208;5.158;2024-01-30T05:57:44;102296.22;;;8.58;100.00
65758;BME280;52495;52.208;5.158;2024-01-30T06:00:11;102303.94;;;8.58;100.00
65758;BME280;52495;52.208;5.158;2024-01-30T06:02:38;102295.38;;;8.60;100.00
65758;BME280;52495;52.208;5.158;2024-01-30T06:05:06;102297.09;;;8.60;100.00
65758;BME280;52495;52.208;5.158;2024-01-30T06:07:33;102301.41;;;8.61;100.00
65758;BME280;52495;52.208;5.158;2024-01-30T06:10:00;102311.72;;;8.62;100.00
65758;BME280;52495;52.208;5.158;2024-01-30T06:12:27;102304.84;;;8.63;100.00
65758;BME280;52495;52.208;5.158;2024-01-30T06:14:54;102299.69;;;8.63;100.00
65758;BME280;52495;52.208;5.158;2024-01-30T06:17:22;102287.72;;;8.63;100.00
65758;BME280;52495;52.208;5.158;2024-01-30T06:19:49;102294.59;;;8.64;100.00
65758;BME280;52495;52.208;5.158;2024-01-30T06:22:17;102298.03;;;8.65;100.00
65758;BME280;52495;52.208;5.158;2024-01-30T06:24:44;102299.75;;;8.66;100.00
65758;BME280;52495;52.208;5.158;2024-01-30T06:27:13;102301.47;;;8.67;100.00
65758;BME280;52495;52.208;5.158;2024-01-30T06:29:40;102294.69;;;8.71;100.00
65758;BME280;52495;52.208;5.158;2024-01-30T06:32:06;102283.50;;;8.70;100.00
65758;BME280;52495;52.208;5.158;2024-01-30T06:34:33;102290.38;;;8.70;100.00
65758;BME280;52495;52.208;5.158;2024-01-30T06:37:00;102299.00;;;8.73;100.00
65758;BME280;52495;52.208;5.158;2024-01-30T06:39:28;102305.91;;;8.74;100.00
65758;BME280;52495;52.208;5.158;2024-01-30T06:41:55;102306.78;;;8.76;100.00
65758;BME280;52495;52.208;5.158;2024-01-30T06:44:22;102305.06;;;8.77;100.00
65758;BME280;52495;52.208;5.158;2024-01-30T06:46:48;102311.09;;;8.77;100.00
65758;BME280;52495;52.208;5.158;2024-01-30T06:49:15;102307.69;;;8.80;100.00
65758;BME280;52495;52.208;5.158;2024-01-30T06:51:42;102311.19;;;8.85;100.00
65758;BME280;52495;52.208;5.158;2024-01-30T06:54:08;102313.78;;;8.85;100.00
65758;BME280;52495;52.208;5.158;2024-01-30T06:56:36;102317.25;;;8.87;100.00
65758;BME280;52495;52.208;5.158;2024-01-30T06:59:03;102308.69;;;8.90;100.00
65758;BME280;52495;52.208;5.158;2024-01-30T07:01:30;102317.31;;;8.93;100.00
65758;BME280;52495;52.208;5.158;2024-01-30T07:03:58;102316.50;;;8.96;100.00
65758;BME280;52495;52.208;5.158;2024-01-30T07:06:24;102316.50;;;8.98;100.00
65758;BME280;52495;52.208;5.158;2024-01-30T07:08:51;102315.72;;;9.02;100.00
65758;BME280;52495;52.208;5.158;2024-01-30T07:11:18;102320.91;;;9.05;100.00
65758;BME280;52495;52.208;5.158;2024-01-30T07:13:46;102310.59;;;9.06;100.00
65758;BME280;52495;52.208;5.158;2024-01-30T07:16:13;102314.97;;;9.12;100.00
65758;BME280;52495;52.208;5.158;2024-01-30T07:18:40;102311.53;;;9.11;100.00
65758;BME280;52495;52.208;5.158;2024-01-30T07:21:07;102323.59;;;9.14;100.00
65758;BME280;52495;52.208;5.158;2024-01-30T07:23:34;102327.09;;;9.21;100.00
65758;BME280;52495;52.208;5.158;2024-01-30T07:26:04;102322.78;;;9.20;100.00
65758;BME280;52495;52.208;5.158;2024-01-30T07:28:31;102322.84;;;9.21;100.00
65758;BME280;52495;52.208;5.158;2024-01-30T07:31:00;102321.13;;;9.23;100.00
65758;BME280;52495;52.208;5.158;2024-01-30T07:33:26;102331.47;;;9.25;100.00
65758;BME280;52495;52.208;5.158;2024-01-30T07:35:53;102328.94;;;9.30;100.00
65758;BME280;52495;52.208;5.158;2024-01-30T07:38:20;102334.97;;;9.33;100.00
65758;BME280;52495;52.208;5.158;2024-01-30T07:40:46;102336.75;;;9.36;100.00
65758;BME280;52495;52.208;5.158;2024-01-30T07:43:13;102347.09;;;9.39;100.00
65758;BME280;52495;52.208;5.158;2024-01-30T07:45:40;102344.53;;;9.40;100.00
65758;BME280;52495;52.208;5.158;2024-01-30T07:48:08;102346.31;;;9.45;100.00
65758;BME280;52495;52.208;5.158;2024-01-30T07:50:35;102348.03;;;9.47;100.00
65758;BME280;52495;52.208;5.158;2024-01-30T07:53:02;102342.88;;;9.49;100.00
65758;BME280;52495;52.208;5.158;2024-01-30T07:55:28;102349.81;;;9.51;100.00
65758;BME280;52495;52.208;5.158;2024-01-30T07:57:57;102347.28;;;9.56;100.00
65758;BME280;52495;52.208;5.158;2024-01-30T08:00:24;102348.19;;;9.60;100.00
65758;BME280;52495;52.208;5.158;2024-01-30T08:02:50;102359.38;;;9.62;100.00
65758;BME280;52495;52.208;5.158;2024-01-30T08:05:20;102348.25;;;9.64;100.00
65758;BME280;52495;52.208;5.158;2024-01-30T08:07:47;102353.41;;;9.67;100.00
65758;BME280;52495;52.208;5.158;2024-01-30T08:10:15;102358.63;;;9.70;100.00
65758;BME280;52495;52.208;5.158;2024-01-30T08:12:43;102352.66;;;9.76;100.00
65758;BME280;52495;52.208;5.158;2024-01-30T08:15:11;102355.25;;;9.78;100.00
65758;BME280;52495;52.208;5.158;2024-01-30T08:17:38;102351.84;;;9.80;100.00
65758;BME280;52495;52.208;5.158;2024-01-30T08:20:06;102356.19;;;9.84;100.00
65758;BME280;52495;52.208;5.158;2024-01-30T08:22:35;102358.81;;;9.89;100.00
65758;BME280;52495;52.208;5.158;2024-01-30T08:25:01;102354.53;;;9.90;100.00
65758;BME280;52495;52.208;5.158;2024-01-30T08:27:28;102358.84;;;9.92;100.00
65758;BME280;52495;52.208;5.158;2024-01-30T08:29:55;102358.84;;;9.94;100.00
65758;BME280;52495;52.208;5.158;2024-01-30T08:32:21;102356.34;;;9.98;100.00
65758;BME280;52495;52.208;5.158;2024-01-30T08:34:49;102359.81;;;10.02;100.00
65758;BME280;52495;52.208;5.158;2024-01-30T08:37:15;102364.16;;;10.06;100.00
65758;BME280;52495;52.208;5.158;2024-01-30T08:39:44;102356.44;;;10.11;100.00
65758;BME280;52495;52.208;5.158;2024-01-30T08:42:11;102361.66;;;10.14;100.00
65758;BME280;52495;52.208;5.158;2024-01-30T08:44:37;102360.78;;;10.18;100.00
65758;BME280;52495;52.208;5.158;2024-01-30T08:47:05;102369.41;;;10.18;100.00
65758;BME280;52495;52.208;5.158;2024-01-30T08:49:31;102366.88;;;10.23;100.00
65758;BME280;52495;52.208;5.158;2024-01-30T08:51:58;102364.31;;;10.28;100.00
65758;BME280;52495;52.208;5.158;2024-01-30T08:54:25;102365.22;;;10.30;100.00
65758;BME280;52495;52.208;5.158;2024-01-30T08:56:53;102357.47;;;10.30;100.00
65758;BME280;52495;52.208;5.158;2024-01-30T08:59:21;102370.41;;;10.33;100.00
65758;BME280;52495;52.208;5.158;2024-01-30T09:01:48;102363.50;;;10.32;100.00
65758;BME280;52495;52.208;5.158;2024-01-30T09:04:18;102363.50;;;10.33;100.00
65758;BME280;52495;52.208;5.158;2024-01-30T09:06:45;102364.38;;;10.34;100.00
65758;BME280;52495;52.208;5.158;2024-01-30T09:09:12;102370.41;;;10.33;100.00
65758;BME280;52495;52.208;5.158;2024-01-30T09:11:40;102373.88;;;10.35;100.00
65758;BME280;52495;52.208;5.158;2024-01-30T09:14:08;102371.25;;;10.33;100.00
65758;BME280;52495;52.208;5.158;2024-01-30T09:16:34;102365.25;;;10.31;100.00
65758;BME280;52495;52.208;5.158;2024-01-30T09:19:01;102379.00;;;10.33;100.00
65758;BME280;52495;52.208;5.158;2024-01-30T09:21:28;102385.03;;;10.34;100.00
65758;BME280;52495;52.208;5.158;2024-01-30T09:24:01;102377.31;;;10.34;100.00
65758;BME280;52495;52.208;5.158;2024-01-30T09:26:28;102390.22;;;10.36;100.00
65758;BME280;52495;52.208;5.158;2024-01-30T09:28:55;102387.63;;;10.36;100.00
65758;BME280;52495;52.208;5.158;2024-01-30T09:31:23;102384.25;;;10.38;100.00
65758;BME280;52495;52.208;5.158;2024-01-30T09:33:50;102389.44;;;10.38;100.00
65758;BME280;52495;52.208;5.158;2024-01-30T09:36:19;102383.41;;;10.41;100.00
65758;BME280;52495;52.208;5.158;2024-01-30T09:38:46;102382.56;;;10.40;100.00
65758;BME280;52495;52.208;5.158;2024-01-30T09:41:13;102392.91;;;10.46;100.00
65758;BME280;52495;52.208;5.158;2024-01-30T09:43:39;102389.50;;;10.47;100.00
65758;BME280;52495;52.208;5.158;2024-01-30T09:46:11;102390.41;;;10.53;100.00
65758;BME280;52495;52.208;5.158;2024-01-30T09:48:41;102388.69;;;10.56;100.00
65758;BME280;52495;52.208;5.158;2024-01-30T09:51:08;102406.81;;;10.58;100.00
65758;BME280;52495;52.208;5.158;2024-01-30T09:53:35;102394.75;;;10.57;100.00
65758;BME280;52495;52.208;5.158;2024-01-30T09:56:04;102393.88;;;10.61;100.00
65758;BME280;52495;52.208;5.158;2024-01-30T09:58:31;102393.06;;;10.63;100.00
65758;BME280;52495;52.208;5.158;2024-01-30T10:00:58;102399.94;;;10.63;100.00
65758;BME280;52495;52.208;5.158;2024-01-30T10:03:25;102406.00;;;10.70;100.00
65758;BME280;52495;52.208;5.158;2024-01-30T10:05:54;102409.47;;;10.72;100.00
65758;BME280;52495;52.208;5.158;2024-01-30T10:08:22;102407.78;;;10.74;100.00
65758;BME280;52495;52.208;5.158;2024-01-30T10:10:49;102398.38;;;10.82;100.00
65758;BME280;52495;52.208;5.158;2024-01-30T10:13:16;102399.22;;;10.83;100.00
65758;BME280;52495;52.208;5.158;2024-01-30T10:15:43;102402.69;;;10.86;100.00
65758;BME280;52495;52.208;5.158;2024-01-30T10:18:10;102412.16;;;10.86;100.00
65758;BME280;52495;52.208;5.158;2024-01-30T10:20:37;102413.91;;;10.87;100.00
65758;BME280;52495;52.208;5.158;2024-01-30T10:23:05;102413.91;;;10.87;100.00
65758;BME280;52495;52.208;5.158;2024-01-30T10:25:33;102405.28;;;10.89;100.00
65758;BME280;52495;52.208;5.158;2024-01-30T10:28:00;102394.09;;;10.89;100.00
65758;BME280;52495;52.208;5.158;2024-01-30T10:30:27;102406.16;;;10.87;100.00
65758;BME280;52495;52.208;5.158;2024-01-30T10:32:54;102419.91;;;10.86;100.00
65758;BME280;52495;52.208;5.158;2024-01-30T10:35:21;102408.69;;;10.84;100.00
65758;BME280;52495;52.208;5.158;2024-01-30T10:37:48;102422.41;;;10.73;100.00
65758;BME280;52495;52.208;5.158;2024-01-30T10:40:16;102420.59;;;10.63;100.00
65758;BME280;52495;52.208;5.158;2024-01-30T10:42:44;102417.19;;;10.67;100.00
65758;BME280;52495;52.208;5.158;2024-01-30T10:45:12;102423.19;;;10.61;100.00
65758;BME280;52495;52.208;5.158;2024-01-30T10:47:44;102435.13;;;10.47;100.00
65758;BME280;52495;52.208;5.158;2024-01-30T10:50:13;102429.81;;;10.38;100.00
65758;BME280;52495;52.208;5.158;2024-01-30T10:52:41;102443.66;;;10.40;100.00
65758;BME280;52495;52.208;5.158;2024-01-30T10:55:09;102446.22;;;10.38;100.00
65758;BME280;52495;52.208;5.158;2024-01-30T10:57:38;102452.16;;;10.34;100.00
65758;BME280;52495;52.208;5.158;2024-01-30T11:00:07;102449.50;;;10.26;100.00
65758;BME280;52495;52.208;5.158;2024-01-30T11:02:37;102453.81;;;10.29;100.00
65758;BME280;52495;52.208;5.158;2024-01-30T11:05:05;102458.94;;;10.24;100.00
65758;BME280;52495;52.208;5.158;2024-01-30T11:07:32;102460.69;;;10.24;100.00
65758;BME280;52495;52.208;5.158;2024-01-30T11:10:03;102467.47;;;10.17;100.00
65758;BME280;52495;52.208;5.158;2024-01-30T11:12:31;102473.50;;;10.17;100.00
65758;BME280;52495;52.208;5.158;2024-01-30T11:15:05;102465.66;;;10.07;100.00
65758;BME280;52495;52.208;5.158;2024-01-30T11:17:43;102469.06;;;10.04;100.00
65758;BME280;52495;52.208;5.158;2024-01-30T11:20:10;102465.66;;;10.05;100.00
65758;BME280;52495;52.208;5.158;2024-01-30T11:22:41;102477.69;;;10.06;100.00
65758;BME280;52495;52.208;5.158;2024-01-30T11:25:11;102458.75;;;10.04;100.00
65758;BME280;52495;52.208;5.158;2024-01-30T11:27:38;102471.56;;;9.99;100.00
65758;BME280;52495;52.208;5.158;2024-01-30T11:30:08;102462.13;;;9.98;100.00
65758;BME280;52495;52.208;5.158;2024-01-30T11:32:35;102475.84;;;9.96;100.00
65758;BME280;52495;52.208;5.158;2024-01-30T11:35:03;102463.84;;;9.98;100.00
65758;BME280;52495;52.208;5.158;2024-01-30T11:37:31;102484.38;;;9.92;100.00
65758;BME280;52495;52.208;5.158;2024-01-30T11:39:58;102464.59;;;9.91;100.00
65758;BME280;52495;52.208;5.158;2024-01-30T11:42:26;102468.91;;;9.89;100.00
65758;BME280;52495;52.208;5.158;2024-01-30T11:44:53;102471.44;;;9.87;100.00
65758;BME280;52495;52.208;5.158;2024-01-30T11:47:22;102474.81;;;9.81;100.00
65758;BME280;52495;52.208;5.158;2024-01-30T11:49:49;102469.66;;;9.80;100.00
65758;BME280;52495;52.208;5.158;2024-01-30T11:52:16;102477.41;;;9.83;100.00
65758;BME280;52495;52.208;5.158;2024-01-30T11:54:42;102487.56;;;9.69;100.00
65758;BME280;52495;52.208;5.158;2024-01-30T11:57:09;102487.47;;;9.63;100.00
65758;BME280;52495;52.208;5.158;2024-01-30T11:59:36;102490.00;;;9.58;100.00
65758;BME280;52495;52.208;5.158;2024-01-30T12:02:03;102495.00;;;9.49;100.00
65758;BME280;52495;52.208;5.158;2024-01-30T12:04:33;102486.47;;;9.51;100.00
65758;BME280;52495;52.208;5.158;2024-01-30T12:07:00;102493.31;;;9.49;100.00
65758;BME280;52495;52.208;5.158;2024-01-30T12:09:27;102494.94;;;9.43;100.00
65758;BME280;52495;52.208;5.158;2024-01-30T12:11:54;102492.25;;;9.36;100.00
65758;BME280;52495;52.208;5.158;2024-01-30T12:14:22;102511.91;;;9.28;100.00
65758;BME280;52495;52.208;5.158;2024-01-30T12:16:59;102510.97;;;9.23;100.00
65758;BME280;52495;52.208;5.158;2024-01-30T12:19:28;102502.41;;;9.24;100.00
65758;BME280;52495;52.208;5.158;2024-01-30T12:21:56;102515.28;;;9.24;100.00
65758;BME280;52495;52.208;5.158;2024-01-30T12:24:24;102513.50;;;9.20;100.00
65758;BME280;52495;52.208;5.158;2024-01-30T12:26:51;102504.94;;;9.22;100.00
65758;BME280;52495;52.208;5.158;2024-01-30T12:29:20;102517.03;;;9.26;100.00
65758;BME280;52495;52.208;5.158;2024-01-30T12:31:47;102511.03;;;9.27;100.00
65758;BME280;52495;52.208;5.158;2024-01-30T12:34:14;102492.19;;;9.30;100.00
65758;BME280;52495;52.208;5.158;2024-01-30T12:36:41;102505.88;;;9.27;100.00
65758;BME280;52495;52.208;5.158;2024-01-30T12:39:12;102496.47;;;9.30;100.00
65758;BME280;52495;52.208;5.158;2024-01-30T12:41:40;102518.81;;;9.29;100.00
65758;BME280;52495;52.208;5.158;2024-01-30T12:44:07;102509.25;;;9.23;100.00
65758;BME280;52495;52.208;5.158;2024-01-30T12:46:34;102518.69;;;9.23;100.00
65758;BME280;52495;52.208;5.158;2024-01-30T12:49:01;102521.34;;;9.27;100.00